Tetide — IVTN — position and weather

sailwx.info

Track history (hours):
 
Tides and Currents Weather Stations Pressure Air Temp Water Temp Dewpoint Dewpoint Depression Visibility Wind Speed Wind Dir Waves Ship Positions

Tetide

Last reported at 2017-Aug-19 20:30 UTC. Time now 2017-Aug-19 20:34 UTC.
Position N 41°15' E 013°37'.

Length 70 m; draft 3.6 m.

Type: Passenger vessel. MMSI: 247043100.

Date/timePositionNaut miles runAvg speedWind from/ knotsBaromVisibWave heightAir tempDewpointWater temp
2017-Aug-19 20:30N 41°15' E 013°37'0 0.0
2017-Aug-19 19:23N 41°15' E 013°37'0 0.0
2017-Aug-19 18:57N 41°15' E 013°37'0 0.0
2017-Aug-19 18:29N 41°15' E 013°37'0 0.0
2017-Aug-19 18:00N 41°15' E 013°37'0 0.3
2017-Aug-19 17:31N 41°15' E 013°37'1614.2
2017-Aug-19 16:23N 40°60' E 013°31'614.7
2017-Aug-19 16:00N 40°55' E 013°29'1 0.5
2017-Aug-19 14:00N 40°54' E 013°28'714.5
2017-Aug-19 13:30N 41°00' E 013°31'714.6
2017-Aug-19 13:01N 41°07' E 013°34'714.6
2017-Aug-19 12:30N 41°14' E 013°37'1 1.8
2017-Aug-19 12:00N 41°15' E 013°37'0 0.0
2017-Aug-19 05:03N 41°15' E 013°37'0 0.0
2017-Aug-19 04:59N 41°15' E 013°37'0 0.0
2017-Aug-19 04:30N 41°15' E 013°37'0 0.0
2017-Aug-19 04:00N 41°15' E 013°37'0 0.0
2017-Aug-19 03:29N 41°15' E 013°37'0 0.0
2017-Aug-19 03:00N 41°15' E 013°37'0 0.0
2017-Aug-19 02:30N 41°15' E 013°37'0 0.0
2017-Aug-19 02:00N 41°15' E 013°37'0 0.0
2017-Aug-19 01:30N 41°15' E 013°37'0 0.0
2017-Aug-19 01:00N 41°15' E 013°37'0 0.0
2017-Aug-19 00:30N 41°15' E 013°37'0 0.0
2017-Aug-19 00:00N 41°15' E 013°37'0 0.0
2017-Aug-18 23:30N 41°15' E 013°37'0 0.0
2017-Aug-18 23:00N 41°15' E 013°37'0 0.0
2017-Aug-18 22:30N 41°15' E 013°37'0 0.0
2017-Aug-18 22:00N 41°15' E 013°37'0 0.0
2017-Aug-18 21:30N 41°15' E 013°37'0 0.0
2017-Aug-18 21:00N 41°15' E 013°37'0 0.0
2017-Aug-18 20:30N 41°15' E 013°37'0 0.0
2017-Aug-18 20:00N 41°15' E 013°37'0 0.0
2017-Aug-18 19:30N 41°15' E 013°37'0 0.0
2017-Aug-18 19:00N 41°15' E 013°37'0 0.0
2017-Aug-18 18:30N 41°15' E 013°37'510.6
2017-Aug-18 18:00N 41°11' E 013°33'714.5
2017-Aug-18 17:30N 41°07' E 013°25'814.9
2017-Aug-18 16:58N 41°02' E 013°16'814.7
2017-Aug-18 16:24N 40°58' E 013°07'4 2.4
2017-Aug-18 14:54N 40°56' E 013°03'1414.1
2017-Aug-18 13:56N 41°03' E 013°18'614.1
2017-Aug-18 13:30N 41°07' E 013°25'714.2
2017-Aug-18 13:00N 41°11' E 013°32'611.5
2017-Aug-18 12:30N 41°15' E 013°37'0 0.1
2017-Aug-18 12:00N 41°15' E 013°37'4 8.0
2017-Aug-18 11:30N 41°12' E 013°35'714.8
2017-Aug-18 11:00N 41°08' E 013°26'715.0
2017-Aug-18 10:30N 41°04' E 013°18'1414.9
2017-Aug-18 09:34N 40°56' E 013°02'16 6.9
2017-Aug-18 07:17N 41°05' E 013°19'414.2
2017-Aug-18 06:59N 41°07' E 013°24'814.5
2017-Aug-18 06:28N 41°11' E 013°33'511.6
2017-Aug-18 06:01N 41°15' E 013°37'0 0.0
2017-Aug-18 05:30N 41°15' E 013°37'0 0.0
2017-Aug-18 05:00N 41°15' E 013°37'0 0.0
2017-Aug-18 04:30N 41°15' E 013°37'0 0.0
2017-Aug-18 04:01N 41°15' E 013°37'0 0.0
2017-Aug-18 03:10N 41°15' E 013°37'0 0.0
2017-Aug-18 03:00N 41°15' E 013°37'0 0.0
2017-Aug-18 02:31N 41°15' E 013°37'0 0.0
2017-Aug-18 02:01N 41°15' E 013°37'0 0.0
2017-Aug-18 01:31N 41°15' E 013°37'0 0.0
2017-Aug-18 01:01N 41°15' E 013°37'0 0.0
2017-Aug-18 00:31N 41°15' E 013°37'0 0.0
2017-Aug-18 00:00N 41°15' E 013°37'0 0.0
2017-Aug-17 23:31N 41°15' E 013°37'0 0.0
2017-Aug-17 23:01N 41°15' E 013°37'0 0.0
2017-Aug-17 22:31N 41°15' E 013°37'0 0.0
2017-Aug-17 22:00N 41°15' E 013°37'0 0.0
2017-Aug-17 21:30N 41°15' E 013°37'0 0.0
2017-Aug-17 20:48N 41°15' E 013°37'0 0.0
2017-Aug-17 20:31N 41°15' E 013°37'0 0.0
2017-Aug-17 20:00N 41°15' E 013°37'0 0.0
2017-Aug-17 19:29N 41°15' E 013°37'0 0.0
2017-Aug-17 19:01N 41°15' E 013°37'0 0.0
2017-Aug-17 18:30N 41°15' E 013°37'0 0.0
2017-Aug-17 18:00N 41°15' E 013°37'0 0.5
2017-Aug-17 17:30N 41°15' E 013°37'714.2
2017-Aug-17 17:00N 41°08' E 013°35'714.3
2017-Aug-17 16:31N 41°01' E 013°32'714.5
2017-Aug-17 16:00N 40°55' E 013°29'4 2.0
2017-Aug-17 14:05N 40°51' E 013°27'214.3
2017-Aug-17 13:58N 40°53' E 013°28'1014.6
2017-Aug-17 13:18N 41°02' E 013°32'414.7
2017-Aug-17 13:00N 41°06' E 013°34'9 8.4
2017-Aug-17 11:52N 41°15' E 013°37'411.2
2017-Aug-17 11:30N 41°12' E 013°34'715.0
2017-Aug-17 11:00N 41°08' E 013°26'815.3
2017-Aug-17 10:30N 41°04' E 013°17'14 3.6
2017-Aug-17 06:32N 41°11' E 013°34'015.1
2017-Aug-17 06:30N 41°11' E 013°34'4 8.8
2017-Aug-17 06:00N 41°15' E 013°37'0 0.0
2017-Aug-17 05:31N 41°15' E 013°37'0 0.0
2017-Aug-17 05:01N 41°15' E 013°37'0 0.0
2017-Aug-17 04:31N 41°15' E 013°37'0 0.0
2017-Aug-17 04:01N 41°15' E 013°37'0 0.0
2017-Aug-17 03:30N 41°15' E 013°37'0 0.0
2017-Aug-17 03:00N 41°15' E 013°37'0 0.0
2017-Aug-17 02:30N 41°15' E 013°37'0 0.0
2017-Aug-17 01:59N 41°15' E 013°37'0 0.0
2017-Aug-17 01:26N 41°15' E 013°37'0 0.0
2017-Aug-17 01:00N 41°15' E 013°37'0 0.0
2017-Aug-17 00:20N 41°15' E 013°37'0 0.0
2017-Aug-17 00:00N 41°15' E 013°37'0 0.0
2017-Aug-16 23:30N 41°15' E 013°37'15 2.4
2017-Aug-16 17:21N 41°05' E 013°23'615.1
2017-Aug-16 16:55N 41°02' E 013°15'1015.0
2017-Aug-16 16:15N 40°57' E 013°04'27 8.1
2017-Aug-16 12:56N 41°11' E 013°34'510.8
2017-Aug-16 12:31N 41°15' E 013°37'0 0.0
2017-Aug-16 12:00N 41°15' E 013°37'810.1
2017-Aug-16 11:14N 41°09' E 013°30'515.0
2017-Aug-16 10:56N 41°07' E 013°25'615.0
2017-Aug-16 10:30N 41°03' E 013°18'815.0
2017-Aug-16 09:59N 40°59' E 013°09'16 5.0
2017-Aug-16 06:50N 41°08' E 013°27'814.5
2017-Aug-16 06:18N 41°12' E 013°35'310.9
2017-Aug-16 06:00N 41°15' E 013°37'0 0.0
2017-Aug-16 05:29N 41°15' E 013°37'0 0.0
2017-Aug-16 05:00N 41°15' E 013°37'0 0.0
2017-Aug-16 04:30N 41°15' E 013°37'0 0.0
2017-Aug-16 02:20N 41°15' E 013°37'0 0.0
2017-Aug-16 01:59N 41°15' E 013°37'0 0.0
2017-Aug-16 01:19N 41°15' E 013°37'0 0.0
2017-Aug-16 01:00N 41°15' E 013°37'0 0.0
2017-Aug-16 00:29N 41°15' E 013°37'0 0.0
2017-Aug-16 00:00N 41°15' E 013°37'0 0.0
2017-Aug-15 23:30N 41°15' E 013°37'0 0.0
2017-Aug-15 23:00N 41°15' E 013°37'0 0.0
2017-Aug-15 22:30N 41°15' E 013°37'0 0.0
2017-Aug-15 22:00N 41°15' E 013°37'0 0.0
2017-Aug-15 21:14N 41°15' E 013°37'0 0.0
2017-Aug-15 21:00N 41°15' E 013°37'0 0.0
2017-Aug-15 19:34N 41°15' E 013°37'0 0.0
2017-Aug-15 19:23N 41°15' E 013°37'0 0.0
2017-Aug-15 18:44N 41°15' E 013°37'0 0.3
2017-Aug-15 18:27N 41°15' E 013°37'511.9
2017-Aug-15 18:00N 41°11' E 013°33'1214.8
2017-Aug-15 17:13N 41°04' E 013°21'10 2.4
2017-Aug-15 13:04N 41°10' E 013°31'114.5
2017-Aug-15 13:00N 41°11' E 013°33'611.4
2017-Aug-15 12:30N 41°15' E 013°37'0 0.1
2017-Aug-15 12:00N 41°15' E 013°37'33 9.1
2017-Aug-15 08:25N 40°56' E 013°02'3313.7
2017-Aug-15 06:02N 41°15' E 013°37'0 0.1
2017-Aug-15 05:45N 41°15' E 013°37'0 0.0
2017-Aug-15 05:28N 41°15' E 013°37'0 0.0
2017-Aug-15 04:36N 41°15' E 013°37'0 0.0
2017-Aug-15 02:33N 41°15' E 013°37'0 0.1
2017-Aug-15 02:30N 41°15' E 013°37'0 0.0
2017-Aug-15 02:00N 41°15' E 013°37'0 0.0
2017-Aug-15 00:55N 41°15' E 013°37'0 0.0
2017-Aug-15 00:30N 41°15' E 013°37'0 0.0
2017-Aug-15 00:01N 41°15' E 013°37'0 0.0
2017-Aug-14 23:30N 41°15' E 013°37'0 0.0
2017-Aug-14 20:31N 41°15' E 013°37'0 0.0
2017-Aug-14 20:30N 41°15' E 013°37'0 0.0
2017-Aug-14 19:45N 41°15' E 013°37'0 0.0
2017-Aug-14 19:30N 41°15' E 013°37'0 0.0
2017-Aug-14 18:31N 41°15' E 013°37'0 0.0
2017-Aug-14 18:30N 41°15' E 013°37'0 0.0
2017-Aug-14 18:01N 41°15' E 013°37'0 0.1
2017-Aug-14 17:30N 41°15' E 013°37'  
2017-Aug-10 18:34N 41°15' E 013°37'0 0.0
2017-Aug-10 18:31N 41°15' E 013°37'0 0.0
2017-Aug-10 18:00N 41°15' E 013°37'1 1.6
2017-Aug-10 17:30N 41°15' E 013°37'714.4
2017-Aug-10 17:00N 41°08' E 013°34'10 3.3
2017-Aug-10 13:55N 40°58' E 013°30'11 4.0
2017-Aug-10 11:10N 41°08' E 013°27'314.8
2017-Aug-10 10:56N 41°07' E 013°23'614.8
2017-Aug-10 10:31N 41°03' E 013°16'19 4.5
2017-Aug-10 06:11N 41°15' E 013°37'1 4.2
2017-Aug-10 06:00N 41°15' E 013°37'0 0.0
2017-Aug-10 05:28N 41°15' E 013°37'0 0.0
2017-Aug-10 05:00N 41°15' E 013°37'0 0.0
2017-Aug-10 04:30N 41°15' E 013°37'0 0.0
2017-Aug-10 04:00N 41°15' E 013°37'0 0.0
2017-Aug-10 03:30N 41°15' E 013°37'0 0.0
2017-Aug-10 02:56N 41°15' E 013°37'0 0.0
2017-Aug-10 02:30N 41°15' E 013°37'0 0.0
2017-Aug-10 02:00N 41°15' E 013°37'0 0.0
2017-Aug-10 01:18N 41°15' E 013°37'0 0.0
2017-Aug-10 01:00N 41°15' E 013°37'0 0.0
2017-Aug-10 00:30N 41°15' E 013°37'  
Track history (hours):
 
Tides and Currents Weather Stations Pressure Air Temp Water Temp Dewpoint Dewpoint Depression Visibility Wind Speed Wind Dir Waves Ship Positions

Tetide

Last reported at 2017-Aug-19 20:30 UTC. Time now 2017-Aug-19 20:34 UTC.
Position N 41°15' E 013°37'.

Length 70 m; draft 3.6 m.

Type: Passenger vessel. MMSI: 247043100.

Date/timePositionNaut miles runAvg speedWind from/ knotsBaromVisibWave heightAir tempDewpointWater temp
2017-Aug-19 20:30N 41°15' E 013°37'0 0.0
2017-Aug-19 19:23N 41°15' E 013°37'0 0.0
2017-Aug-19 18:57N 41°15' E 013°37'0 0.0
2017-Aug-19 18:29N 41°15' E 013°37'0 0.0
2017-Aug-19 18:00N 41°15' E 013°37'0 0.3
2017-Aug-19 17:31N 41°15' E 013°37'1614.2
2017-Aug-19 16:23N 40°60' E 013°31'614.7
2017-Aug-19 16:00N 40°55' E 013°29'1 0.5
2017-Aug-19 14:00N 40°54' E 013°28'714.5
2017-Aug-19 13:30N 41°00' E 013°31'714.6
2017-Aug-19 13:01N 41°07' E 013°34'714.6
2017-Aug-19 12:30N 41°14' E 013°37'1 1.8
2017-Aug-19 12:00N 41°15' E 013°37'0 0.0
2017-Aug-19 05:03N 41°15' E 013°37'0 0.0
2017-Aug-19 04:59N 41°15' E 013°37'0 0.0
2017-Aug-19 04:30N 41°15' E 013°37'0 0.0
2017-Aug-19 04:00N 41°15' E 013°37'0 0.0
2017-Aug-19 03:29N 41°15' E 013°37'0 0.0
2017-Aug-19 03:00N 41°15' E 013°37'0 0.0
2017-Aug-19 02:30N 41°15' E 013°37'0 0.0
2017-Aug-19 02:00N 41°15' E 013°37'0 0.0
2017-Aug-19 01:30N 41°15' E 013°37'0 0.0
2017-Aug-19 01:00N 41°15' E 013°37'0 0.0
2017-Aug-19 00:30N 41°15' E 013°37'0 0.0
2017-Aug-19 00:00N 41°15' E 013°37'0 0.0
2017-Aug-18 23:30N 41°15' E 013°37'0 0.0
2017-Aug-18 23:00N 41°15' E 013°37'0 0.0
2017-Aug-18 22:30N 41°15' E 013°37'0 0.0
2017-Aug-18 22:00N 41°15' E 013°37'0 0.0
2017-Aug-18 21:30N 41°15' E 013°37'0 0.0
2017-Aug-18 21:00N 41°15' E 013°37'0 0.0
2017-Aug-18 20:30N 41°15' E 013°37'0 0.0
2017-Aug-18 20:00N 41°15' E 013°37'0 0.0
2017-Aug-18 19:30N 41°15' E 013°37'0 0.0
2017-Aug-18 19:00N 41°15' E 013°37'0 0.0
2017-Aug-18 18:30N 41°15' E 013°37'510.6
2017-Aug-18 18:00N 41°11' E 013°33'714.5
2017-Aug-18 17:30N 41°07' E 013°25'814.9
2017-Aug-18 16:58N 41°02' E 013°16'814.7
2017-Aug-18 16:24N 40°58' E 013°07'4 2.4
2017-Aug-18 14:54N 40°56' E 013°03'1414.1
2017-Aug-18 13:56N 41°03' E 013°18'614.1
2017-Aug-18 13:30N 41°07' E 013°25'714.2
2017-Aug-18 13:00N 41°11' E 013°32'611.5
2017-Aug-18 12:30N 41°15' E 013°37'0 0.1
2017-Aug-18 12:00N 41°15' E 013°37'4 8.0
2017-Aug-18 11:30N 41°12' E 013°35'714.8
2017-Aug-18 11:00N 41°08' E 013°26'715.0
2017-Aug-18 10:30N 41°04' E 013°18'1414.9
2017-Aug-18 09:34N 40°56' E 013°02'16 6.9
2017-Aug-18 07:17N 41°05' E 013°19'414.2
2017-Aug-18 06:59N 41°07' E 013°24'814.5
2017-Aug-18 06:28N 41°11' E 013°33'511.6
2017-Aug-18 06:01N 41°15' E 013°37'0 0.0
2017-Aug-18 05:30N 41°15' E 013°37'0 0.0
2017-Aug-18 05:00N 41°15' E 013°37'0 0.0
2017-Aug-18 04:30N 41°15' E 013°37'0 0.0
2017-Aug-18 04:01N 41°15' E 013°37'0 0.0
2017-Aug-18 03:10N 41°15' E 013°37'0 0.0
2017-Aug-18 03:00N 41°15' E 013°37'0 0.0
2017-Aug-18 02:31N 41°15' E 013°37'0 0.0
2017-Aug-18 02:01N 41°15' E 013°37'0 0.0
2017-Aug-18 01:31N 41°15' E 013°37'0 0.0
2017-Aug-18 01:01N 41°15' E 013°37'0 0.0
2017-Aug-18 00:31N 41°15' E 013°37'0 0.0
2017-Aug-18 00:00N 41°15' E 013°37'0 0.0
2017-Aug-17 23:31N 41°15' E 013°37'0 0.0
2017-Aug-17 23:01N 41°15' E 013°37'0 0.0
2017-Aug-17 22:31N 41°15' E 013°37'0 0.0
2017-Aug-17 22:00N 41°15' E 013°37'0 0.0
2017-Aug-17 21:30N 41°15' E 013°37'0 0.0
2017-Aug-17 20:48N 41°15' E 013°37'0 0.0
2017-Aug-17 20:31N 41°15' E 013°37'0 0.0
2017-Aug-17 20:00N 41°15' E 013°37'0 0.0
2017-Aug-17 19:29N 41°15' E 013°37'0 0.0
2017-Aug-17 19:01N 41°15' E 013°37'0 0.0
2017-Aug-17 18:30N 41°15' E 013°37'0 0.0
2017-Aug-17 18:00N 41°15' E 013°37'0 0.5
2017-Aug-17 17:30N 41°15' E 013°37'714.2
2017-Aug-17 17:00N 41°08' E 013°35'714.3
2017-Aug-17 16:31N 41°01' E 013°32'714.5
2017-Aug-17 16:00N 40°55' E 013°29'4 2.0
2017-Aug-17 14:05N 40°51' E 013°27'214.3
2017-Aug-17 13:58N 40°53' E 013°28'1014.6
2017-Aug-17 13:18N 41°02' E 013°32'414.7
2017-Aug-17 13:00N 41°06' E 013°34'9 8.4
2017-Aug-17 11:52N 41°15' E 013°37'411.2
2017-Aug-17 11:30N 41°12' E 013°34'715.0
2017-Aug-17 11:00N 41°08' E 013°26'815.3
2017-Aug-17 10:30N 41°04' E 013°17'14 3.6
2017-Aug-17 06:32N 41°11' E 013°34'015.1
2017-Aug-17 06:30N 41°11' E 013°34'4 8.8
2017-Aug-17 06:00N 41°15' E 013°37'0 0.0
2017-Aug-17 05:31N 41°15' E 013°37'0 0.0
2017-Aug-17 05:01N 41°15' E 013°37'0 0.0
2017-Aug-17 04:31N 41°15' E 013°37'0 0.0
2017-Aug-17 04:01N 41°15' E 013°37'0 0.0
2017-Aug-17 03:30N 41°15' E 013°37'0 0.0
2017-Aug-17 03:00N 41°15' E 013°37'0 0.0
2017-Aug-17 02:30N 41°15' E 013°37'0 0.0
2017-Aug-17 01:59N 41°15' E 013°37'0 0.0
2017-Aug-17 01:26N 41°15' E 013°37'0 0.0
2017-Aug-17 01:00N 41°15' E 013°37'0 0.0
2017-Aug-17 00:20N 41°15' E 013°37'0 0.0
2017-Aug-17 00:00N 41°15' E 013°37'0 0.0
2017-Aug-16 23:30N 41°15' E 013°37'15 2.4
2017-Aug-16 17:21N 41°05' E 013°23'615.1
2017-Aug-16 16:55N 41°02' E 013°15'1015.0
2017-Aug-16 16:15N 40°57' E 013°04'27 8.1
2017-Aug-16 12:56N 41°11' E 013°34'510.8
2017-Aug-16 12:31N 41°15' E 013°37'0 0.0
2017-Aug-16 12:00N 41°15' E 013°37'810.1
2017-Aug-16 11:14N 41°09' E 013°30'515.0
2017-Aug-16 10:56N 41°07' E 013°25'615.0
2017-Aug-16 10:30N 41°03' E 013°18'815.0
2017-Aug-16 09:59N 40°59' E 013°09'16 5.0
2017-Aug-16 06:50N 41°08' E 013°27'814.5
2017-Aug-16 06:18N 41°12' E 013°35'310.9
2017-Aug-16 06:00N 41°15' E 013°37'0 0.0
2017-Aug-16 05:29N 41°15' E 013°37'0 0.0
2017-Aug-16 05:00N 41°15' E 013°37'0 0.0
2017-Aug-16 04:30N 41°15' E 013°37'0 0.0
2017-Aug-16 02:20N 41°15' E 013°37'0 0.0
2017-Aug-16 01:59N 41°15' E 013°37'0 0.0
2017-Aug-16 01:19N 41°15' E 013°37'0 0.0
2017-Aug-16 01:00N 41°15' E 013°37'0 0.0
2017-Aug-16 00:29N 41°15' E 013°37'0 0.0
2017-Aug-16 00:00N 41°15' E 013°37'0 0.0
2017-Aug-15 23:30N 41°15' E 013°37'0 0.0
2017-Aug-15 23:00N 41°15' E 013°37'0 0.0
2017-Aug-15 22:30N 41°15' E 013°37'0 0.0
2017-Aug-15 22:00N 41°15' E 013°37'0 0.0
2017-Aug-15 21:14N 41°15' E 013°37'0 0.0
2017-Aug-15 21:00N 41°15' E 013°37'0 0.0
2017-Aug-15 19:34N 41°15' E 013°37'0 0.0
2017-Aug-15 19:23N 41°15' E 013°37'0 0.0
2017-Aug-15 18:44N 41°15' E 013°37'0 0.3
2017-Aug-15 18:27N 41°15' E 013°37'511.9
2017-Aug-15 18:00N 41°11' E 013°33'1214.8
2017-Aug-15 17:13N 41°04' E 013°21'10 2.4
2017-Aug-15 13:04N 41°10' E 013°31'114.5
2017-Aug-15 13:00N 41°11' E 013°33'611.4
2017-Aug-15 12:30N 41°15' E 013°37'0 0.1
2017-Aug-15 12:00N 41°15' E 013°37'33 9.1
2017-Aug-15 08:25N 40°56' E 013°02'3313.7
2017-Aug-15 06:02N 41°15' E 013°37'0 0.1
2017-Aug-15 05:45N 41°15' E 013°37'0 0.0
2017-Aug-15 05:28N 41°15' E 013°37'0 0.0
2017-Aug-15 04:36N 41°15' E 013°37'0 0.0
2017-Aug-15 02:33N 41°15' E 013°37'0 0.1
2017-Aug-15 02:30N 41°15' E 013°37'0 0.0
2017-Aug-15 02:00N 41°15' E 013°37'0 0.0
2017-Aug-15 00:55N 41°15' E 013°37'0 0.0
2017-Aug-15 00:30N 41°15' E 013°37'0 0.0
2017-Aug-15 00:01N 41°15' E 013°37'0 0.0
2017-Aug-14 23:30N 41°15' E 013°37'0 0.0
2017-Aug-14 20:31N 41°15' E 013°37'0 0.0
2017-Aug-14 20:30N 41°15' E 013°37'0 0.0
2017-Aug-14 19:45N 41°15' E 013°37'0 0.0
2017-Aug-14 19:30N 41°15' E 013°37'0 0.0
2017-Aug-14 18:31N 41°15' E 013°37'0 0.0
2017-Aug-14 18:30N 41°15' E 013°37'0 0.0
2017-Aug-14 18:01N 41°15' E 013°37'0 0.1
2017-Aug-14 17:30N 41°15' E 013°37'  
2017-Aug-10 18:34N 41°15' E 013°37'0 0.0
2017-Aug-10 18:31N 41°15' E 013°37'0 0.0
2017-Aug-10 18:00N 41°15' E 013°37'1 1.6
2017-Aug-10 17:30N 41°15' E 013°37'714.4
2017-Aug-10 17:00N 41°08' E 013°34'10 3.3
2017-Aug-10 13:55N 40°58' E 013°30'11 4.0
2017-Aug-10 11:10N 41°08' E 013°27'314.8
2017-Aug-10 10:56N 41°07' E 013°23'614.8
2017-Aug-10 10:31N 41°03' E 013°16'19 4.5
2017-Aug-10 06:11N 41°15' E 013°37'1 4.2
2017-Aug-10 06:00N 41°15' E 013°37'0 0.0
2017-Aug-10 05:28N 41°15' E 013°37'0 0.0
2017-Aug-10 05:00N 41°15' E 013°37'0 0.0
2017-Aug-10 04:30N 41°15' E 013°37'0 0.0
2017-Aug-10 04:00N 41°15' E 013°37'0 0.0
2017-Aug-10 03:30N 41°15' E 013°37'0 0.0
2017-Aug-10 02:56N 41°15' E 013°37'0 0.0
2017-Aug-10 02:30N 41°15' E 013°37'0 0.0
2017-Aug-10 02:00N 41°15' E 013°37'0 0.0
2017-Aug-10 01:18N 41°15' E 013°37'0 0.0
2017-Aug-10 01:00N 41°15' E 013°37'0 0.0
2017-Aug-10 00:30N 41°15' E 013°37'  

Dump ship's entire track history